Terminal Aerodrome Forecast
Issued by NWS Birmingham, AL

Home | Current Version | Previous Version | Text Only | Print | Product List | Glossary On
Versions: 1 2 3 4 5 6 7 8 9 10 11 12 13 14 15 16 17 18 19 20 21 22 23 24
000
FTUS44 KBMX 061500 AAA
TAFBHM
TAF AMD
KBHM 061500Z 0615/0712 24008KT P6SM SCT020
     FM061600 26008KT P6SM SCT040 BKN250
     FM070200 VRB03KT P6SM SKC=

USA.gov is the U.S. government's official web portal to all federal, state and local government web resources and services.